»·PEaware :: N973DM kSEE-KRIV

N973DM :: kSEE-KRIV

FLIGHT INFORMATION

Flight Status: Arrived
Operator: Privately registered:
United States
More flights under this callsign
Pilot: Anonymous 1328 (1328)
Aircraft: CIRRUS SR-20
(SR20)
More flights by this aircraft type
Origin: kSEE Gillespie
United States
Destination: KRIV March ARB
United States
More flights between these airports :: More routes between these airports
Route: +OCN V23 DANAH V363 POXKU V8 PDZ
File this flight plan on PilotEdge
Remarks: REQUEST ILS Y TO RWY 32
Altitude:
(Current/Filed)
4,500ft
Speed:
(Current/Filed)
145kts
Departed: 14-Dec-12 07:55 PM
Arrived: 14-Dec-12 08:51 PM
Distance/Time
Traveled:
64nm/0:55
Distance/Time
To Go:
Arrived

Flight Plot

Page will automatically refresh every two minutes.


Map Options




Map Legend


Flown Route
Filed Route
Departure Airport
Arrival Airport
Navaid (VOR, NDB)
Fix

Horizontal Profiles

Position Reports

Time Latitude Longitude Heading Altitude Ground
Speed
14-Dec-12 19:13 32.825056 -116.969399 14 2ft 0kts
14-Dec-12 19:14 32.825056 -116.969399 14 2ft 0kts
14-Dec-12 19:15 32.825056 -116.969399 14 2ft 0kts
14-Dec-12 19:16 32.825056 -116.969399 14 2ft 0kts
14-Dec-12 19:17 32.825056 -116.969399 14 2ft 0kts
14-Dec-12 19:18 32.825056 -116.969399 14 2ft 0kts
14-Dec-12 19:19 32.825056 -116.969399 14 2ft 0kts
14-Dec-12 19:20 32.825056 -116.969399 14 2ft 0kts
14-Dec-12 19:27 32.826914 -116.979999 104 2ft 0kts
14-Dec-12 19:28 32.826914 -116.979999 104 2ft 0kts
14-Dec-12 19:29 32.826914 -116.979999 104 2ft 0kts
14-Dec-12 19:30 32.826914 -116.979999 104 2ft 0kts
14-Dec-12 19:31 32.826914 -116.979999 104 2ft 0kts
14-Dec-12 19:32 32.826914 -116.979999 104 2ft 0kts
14-Dec-12 19:33 32.826914 -116.979999 104 2ft 0kts
14-Dec-12 19:34 32.826914 -116.979999 104 2ft 0kts
14-Dec-12 19:35 32.826914 -116.979999 104 2ft 0kts
14-Dec-12 19:36 32.826914 -116.979999 104 2ft 0kts
14-Dec-12 19:37 32.826914 -116.979999 104 2ft 0kts
14-Dec-12 19:38 32.826914 -116.979999 104 2ft 0kts
14-Dec-12 19:39 32.826914 -116.979999 104 2ft 0kts
14-Dec-12 19:40 32.826914 -116.979999 104 2ft 0kts
14-Dec-12 19:41 32.826914 -116.979999 104 2ft 0kts
14-Dec-12 19:42 32.826914 -116.979999 104 2ft 0kts
14-Dec-12 19:43 32.826914 -116.979999 104 2ft 0kts
14-Dec-12 19:44 32.826913 -116.979996 104 2ft 0kts
14-Dec-12 19:45 32.827023 -116.979316 29 2ft 0kts
14-Dec-12 19:46 32.827368 -116.978447 88 0ft 19kts
14-Dec-12 19:47 32.827102 -116.979324 65 2ft 18kts
14-Dec-12 19:48 32.825841 -116.970893 101 2ft 23kts
14-Dec-12 19:49 32.824870 -116.964582 51 2ft 7kts
14-Dec-12 19:50 32.826697 -116.964757 353 2ft 4kts
14-Dec-12 19:51 32.827096 -116.964799 22 2ft 0kts
14-Dec-12 19:52 32.826903 -116.964492 166 2ft 0kts
14-Dec-12 19:53 32.826903 -116.964492 166 2ft 0kts
14-Dec-12 19:54 32.826469 -116.964533 217 2ft 9kts
14-Dec-12 19:55 32.833204 -116.981584 342 493ft 85kts
14-Dec-12 19:56 32.854077 -116.984003 357 1041ft 113kts
14-Dec-12 19:57 32.885774 -116.987217 353 1816ft 119kts
14-Dec-12 19:58 32.922374 -116.991497 355 2848ft 111kts
14-Dec-12 19:59 32.952884 -116.995241 355 3692ft 106kts
14-Dec-12 20:00 32.977699 -116.997225 1 4279ft 113kts
14-Dec-12 20:01 33.001283 -117.025607 316 5114ft 113kts
14-Dec-12 20:02 33.015586 -117.051642 304 5689ft 111kts
14-Dec-12 20:03 33.034798 -117.083554 306 6011ft 135kts
14-Dec-12 20:04 33.058837 -117.122079 306 6006ft 150kts
14-Dec-12 20:05 33.083993 -117.162683 306 6005ft 153kts
14-Dec-12 20:06 33.113460 -117.210482 306 6005ft 153kts
14-Dec-12 20:07 33.134514 -117.244676 306 6005ft 153kts
14-Dec-12 20:08 33.159784 -117.285762 306 6005ft 153kts
14-Dec-12 20:09 33.185014 -117.326827 306 6005ft 153kts
14-Dec-12 20:10 33.210300 -117.368029 306 6005ft 153kts
14-Dec-12 20:11 33.234411 -117.407356 306 6007ft 154kts
14-Dec-12 20:12 33.265050 -117.446094 315 6005ft 154kts
14-Dec-12 20:13 33.295694 -117.481765 315 6005ft 154kts
14-Dec-12 20:14 33.326342 -117.517502 315 6005ft 154kts
14-Dec-12 20:15 33.357084 -117.553389 315 6005ft 154kts
14-Dec-12 20:16 33.387705 -117.589171 315 6005ft 154kts
14-Dec-12 20:17 33.418347 -117.625015 315 6005ft 154kts
14-Dec-12 20:18 33.449203 -117.660506 316 6021ft 153kts
14-Dec-12 20:19 33.480230 -117.695606 330 6054ft 151kts
14-Dec-12 20:20 33.522412 -117.705467 347 6009ft 153kts
14-Dec-12 20:21 33.564877 -117.712503 352 6005ft 154kts
14-Dec-12 20:22 33.605400 -117.719332 352 6005ft 145kts
14-Dec-12 20:23 33.645843 -117.726124 352 6005ft 148kts
14-Dec-12 20:24 33.686531 -117.736060 338 6005ft 151kts
14-Dec-12 20:25 33.725769 -117.754615 339 6006ft 151kts
14-Dec-12 20:26 33.765052 -117.773134 338 6005ft 152kts
14-Dec-12 20:27 33.806253 -117.780811 359 5984ft 150kts
14-Dec-12 20:28 33.845646 -117.771134 65 5587ft 171kts
14-Dec-12 20:29 33.864604 -117.728056 59 5939ft 146kts
14-Dec-12 20:30 33.877537 -117.681572 78 5950ft 153kts
14-Dec-12 20:31 33.890594 -117.633462 69 5966ft 152kts
14-Dec-12 20:32 33.893736 -117.584580 111 5549ft 154kts
14-Dec-12 20:33 33.873103 -117.541352 126 4836ft 138kts
14-Dec-12 20:34 33.854918 -117.507966 126 4806ft 110kts
14-Dec-12 20:35 33.837290 -117.476881 122 4979ft 118kts
14-Dec-12 20:36 33.818609 -117.440246 126 5428ft 129kts
14-Dec-12 20:37 33.796823 -117.395184 120 4954ft 147kts
14-Dec-12 20:38 33.775804 -117.357521 123 4695ft 131kts
14-Dec-12 20:39 33.758593 -117.325571 125 4892ft 112kts
14-Dec-12 20:40 33.739742 -117.294389 131 4926ft 122kts
14-Dec-12 20:41 33.721566 -117.260220 116 4984ft 124kts
14-Dec-12 20:42 33.700018 -117.228210 154 4765ft 134kts
14-Dec-12 20:43 33.689673 -117.187297 93 4066ft 135kts
14-Dec-12 20:44 33.689699 -117.147119 50 3880ft 107kts
14-Dec-12 20:45 33.718925 -117.146962 333 3880ft 122kts
14-Dec-12 20:46 33.749820 -117.171423 334 3360ft 134kts
14-Dec-12 20:47 33.777559 -117.185169 327 3538ft 96kts
14-Dec-12 20:48 33.805880 -117.205490 330 2535ft 114kts
14-Dec-12 20:49 33.831414 -117.224197 332 1802ft 104kts
14-Dec-12 20:50 33.854990 -117.241530 329 607ft 107kts
14-Dec-12 20:51 33.872673 -117.253550 347 2ft 18kts

Navigation Log

Ident Type
Flight plan parsing failed, navigation log unavailable